createdAt,value
2019-02-05T00:00:14.101Z,2.61
2019-02-05T00:01:14.097Z,2.61
2019-02-05T00:02:14.067Z,2.66
2019-02-05T00:03:14.066Z,2.67
2019-02-05T00:04:14.058Z,2.72
2019-02-05T00:05:14.034Z,2.75
2019-02-05T00:06:14.111Z,2.71
2019-02-05T00:07:14.019Z,2.71
2019-02-05T00:08:14.003Z,2.67
2019-02-05T00:09:13.992Z,2.72
2019-02-05T00:10:13.986Z,2.66
2019-02-05T00:11:13.997Z,2.63
2019-02-05T00:12:13.964Z,2.61
2019-02-05T00:13:13.951Z,2.61
2019-02-05T00:14:13.935Z,2.57
2019-02-05T00:15:13.931Z,2.61
2019-02-05T00:16:13.940Z,2.64
2019-02-05T00:17:13.904Z,2.60
2019-02-05T00:18:13.893Z,2.66
2019-02-05T00:19:13.886Z,2.66
2019-02-05T00:20:13.877Z,2.61
2019-02-05T00:21:13.899Z,2.60
2019-02-05T00:22:13.856Z,2.63
2019-02-05T00:23:13.838Z,2.49
2019-02-05T00:24:13.840Z,2.56
2019-02-05T00:25:13.819Z,2.46
2019-02-05T00:26:13.807Z,2.46
2019-02-05T00:27:13.814Z,2.45
2019-02-05T00:28:13.786Z,2.52
2019-02-05T00:29:13.771Z,2.53
2019-02-05T00:30:13.761Z,2.45
2019-02-05T00:31:13.785Z,2.60
2019-02-05T00:32:13.737Z,2.48
2019-02-05T00:33:13.733Z,2.48
2019-02-05T00:34:13.719Z,2.48
2019-02-05T00:35:13.707Z,2.42
2019-02-05T00:36:13.698Z,2.52
2019-02-05T00:37:13.713Z,2.41
2019-02-05T00:38:13.682Z,2.36
2019-02-05T00:39:13.663Z,2.36
2019-02-05T00:40:13.658Z,2.35
2019-02-05T00:41:13.646Z,2.31
2019-02-05T00:42:13.653Z,2.31
2019-02-05T00:43:13.626Z,2.18
2019-02-05T00:44:13.613Z,2.23
2019-02-05T00:45:13.599Z,2.25
2019-02-05T00:46:13.611Z,2.21
2019-02-05T00:47:13.592Z,2.20
2019-02-05T00:48:13.571Z,2.20
2019-02-05T00:49:13.554Z,2.14
2019-02-05T00:50:13.550Z,2.14
2019-02-05T00:51:13.538Z,2.14
2019-02-05T00:52:13.643Z,2.14
2019-02-05T00:53:13.513Z,2.16
2019-02-05T00:54:13.505Z,2.17
2019-02-05T00:55:13.490Z,2.16
2019-02-05T00:56:17.721Z,2.16
2019-02-05T00:57:13.511Z,2.14
2019-02-05T00:58:13.454Z,2.05
2019-02-05T00:59:13.449Z,1.93
2019-02-05T01:00:13.438Z,1.95
2019-02-05T01:01:15.407Z,2.05
2019-02-05T01:02:13.452Z,1.95
2019-02-05T01:03:13.402Z,1.93
2019-02-05T01:04:13.394Z,1.84
2019-02-05T01:05:13.383Z,1.83
2019-02-05T01:06:13.371Z,1.86
2019-02-05T01:07:13.366Z,1.81
2019-02-05T01:08:13.364Z,1.72
2019-02-05T01:09:13.346Z,1.66
2019-02-05T01:10:13.341Z,1.73
2019-02-05T01:11:13.319Z,1.65
2019-02-05T01:12:13.328Z,1.65
2019-02-05T01:13:13.992Z,1.52
2019-02-05T01:14:13.283Z,1.47
2019-02-05T01:15:13.270Z,1.54
2019-02-05T01:16:13.262Z,1.42
2019-02-05T01:17:13.250Z,1.42
2019-02-05T01:18:13.262Z,1.40
2019-02-05T01:19:13.229Z,1.37
2019-02-05T01:20:13.217Z,1.36
2019-02-05T01:21:13.211Z,1.44
2019-02-05T01:22:13.191Z,1.41
2019-02-05T01:23:13.246Z,1.42
2019-02-05T01:24:13.182Z,1.48
2019-02-05T01:25:13.162Z,1.51
2019-02-05T01:26:13.153Z,1.48
2019-02-05T01:27:13.152Z,1.44
2019-02-05T01:28:13.133Z,1.48
2019-02-05T01:29:13.145Z,1.47
2019-02-05T01:30:13.109Z,1.58
2019-02-05T01:31:13.095Z,1.59
2019-02-05T01:32:13.091Z,1.58
2019-02-05T01:33:13.103Z,1.60
2019-02-05T01:34:13.063Z,1.59
2019-02-05T01:35:13.050Z,1.45
2019-02-05T01:36:13.042Z,1.54
2019-02-05T01:37:13.036Z,1.55
2019-02-05T01:38:13.056Z,1.52
2019-02-05T01:39:13.025Z,1.60
2019-02-05T01:40:12.997Z,1.62
2019-02-05T01:41:12.991Z,1.60
2019-02-05T01:42:12.978Z,1.58
2019-02-05T01:43:12.966Z,1.60
2019-02-05T01:44:13.486Z,1.63
2019-02-05T01:45:12.941Z,1.60
2019-02-05T01:46:12.933Z,1.58
2019-02-05T01:47:12.927Z,1.60
2019-02-05T01:48:12.910Z,1.63
2019-02-05T01:49:12.933Z,1.63
2019-02-05T01:50:12.888Z,1.55
2019-02-05T01:51:12.880Z,1.60
2019-02-05T01:52:12.866Z,1.52
2019-02-05T01:53:12.856Z,1.58
2019-02-05T01:54:12.861Z,1.60
2019-02-05T01:55:12.843Z,1.55
2019-02-05T01:56:12.821Z,1.45
2019-02-05T01:57:12.937Z,1.55
2019-02-05T01:58:12.829Z,1.48
2019-02-05T01:59:12.835Z,1.60
2019-02-05T02:00:12.781Z,1.60
2019-02-05T02:01:12.775Z,1.44
2019-02-05T02:02:12.765Z,1.42
2019-02-05T02:03:12.762Z,1.47
2019-02-05T02:04:12.752Z,1.51
2019-02-05T02:05:12.742Z,1.52
2019-02-05T02:06:12.712Z,1.50
2019-02-05T02:07:12.722Z,1.45
2019-02-05T02:08:12.706Z,1.50
2019-02-05T02:09:12.702Z,1.41
2019-02-05T02:10:12.691Z,1.44
2019-02-05T02:11:12.658Z,1.33
2019-02-05T02:12:12.648Z,1.27
2019-02-05T02:13:12.633Z,1.40
2019-02-05T02:14:12.632Z,1.34
2019-02-05T02:15:12.633Z,1.36
2019-02-05T02:16:12.604Z,1.26
2019-02-05T02:17:12.597Z,1.26
2019-02-05T02:18:12.579Z,1.30
2019-02-05T02:19:12.572Z,1.22
2019-02-05T02:20:12.573Z,1.23
2019-02-05T02:21:12.683Z,1.22
2019-02-05T02:22:12.541Z,1.12
2019-02-05T02:23:12.531Z,1.04
2019-02-05T02:24:12.515Z,1.12
2019-02-05T02:25:12.518Z,1.08
2019-02-05T02:26:12.501Z,1.02
2019-02-05T02:27:12.480Z,1.04
2019-02-05T02:28:12.487Z,1.04
2019-02-05T02:29:12.460Z,0.96
2019-02-05T02:30:12.472Z,0.94
2019-02-05T02:31:12.448Z,0.94
2019-02-05T02:32:12.432Z,0.93
2019-02-05T02:33:12.416Z,0.98
2019-02-05T02:34:12.429Z,0.91
2019-02-05T02:35:12.403Z,0.93
2019-02-05T02:36:12.402Z,0.98
2019-02-05T02:37:12.375Z,0.96
2019-02-05T02:38:12.369Z,0.96
2019-02-05T02:39:12.363Z,0.97
2019-02-05T02:40:12.343Z,0.97
2019-02-05T02:41:12.352Z,0.87
2019-02-05T02:42:12.318Z,0.94
2019-02-05T02:43:12.310Z,0.91
2019-02-05T02:44:12.298Z,0.88
2019-02-05T02:45:12.283Z,0.83
2019-02-05T02:46:12.307Z,0.84
2019-02-05T02:47:12.263Z,0.84
2019-02-05T02:48:12.250Z,0.73
2019-02-05T02:49:12.256Z,0.87
2019-02-05T02:50:12.230Z,0.86
2019-02-05T02:51:12.241Z,0.73
2019-02-05T02:52:12.211Z,0.66
2019-02-05T02:53:12.201Z,0.65
2019-02-05T02:54:12.185Z,0.60
2019-02-05T02:55:12.187Z,0.65
2019-02-05T02:56:12.183Z,0.65
2019-02-05T02:57:12.166Z,0.65
2019-02-05T02:58:13.652Z,0.66
2019-02-05T02:59:12.137Z,0.66
2019-02-05T03:00:12.121Z,0.66
2019-02-05T03:01:12.134Z,0.65
2019-02-05T03:02:12.101Z,0.62
2019-02-05T03:03:12.090Z,0.58
2019-02-05T03:04:12.086Z,0.53
2019-02-05T03:05:12.069Z,0.60
2019-02-05T03:06:12.080Z,0.57
2019-02-05T03:07:12.048Z,0.51
2019-02-05T03:08:12.037Z,0.53
2019-02-05T03:09:12.024Z,0.53
2019-02-05T03:10:12.019Z,0.58
2019-02-05T03:11:12.042Z,0.57
2019-02-05T03:12:11.993Z,0.62
2019-02-05T03:13:11.981Z,0.62
2019-02-05T03:14:11.971Z,0.61
2019-02-05T03:15:11.965Z,0.66
2019-02-05T03:16:11.950Z,0.66
2019-02-05T03:17:11.956Z,0.65
2019-02-05T03:18:11.928Z,0.61
2019-02-05T03:19:11.917Z,0.61
2019-02-05T03:20:11.905Z,0.60
2019-02-05T03:21:11.894Z,0.61
2019-02-05T03:22:11.905Z,0.62
2019-02-05T03:23:11.874Z,0.53
2019-02-05T03:24:11.885Z,0.50
2019-02-05T03:25:11.853Z,0.38
2019-02-05T03:26:11.940Z,0.51
2019-02-05T03:27:17.894Z,0.49
2019-02-05T03:28:12.824Z,0.50
2019-02-05T03:29:11.827Z,0.47
2019-02-05T03:30:11.799Z,0.53
2019-02-05T03:31:11.790Z,0.51
2019-02-05T03:32:11.779Z,0.49
2019-02-05T03:33:11.782Z,0.51
2019-02-05T03:34:11.765Z,0.39
2019-02-05T03:35:11.754Z,0.44
2019-02-05T03:36:11.741Z,0.36
2019-02-05T03:37:11.735Z,0.39
2019-02-05T03:38:11.727Z,0.42
2019-02-05T03:39:11.701Z,0.36
2019-02-05T03:40:11.693Z,0.44
2019-02-05T03:41:11.679Z,0.44
2019-02-05T03:42:11.671Z,0.38
2019-02-05T03:43:11.673Z,0.47
2019-02-05T03:44:11.650Z,0.44
2019-02-05T03:45:11.639Z,0.38
2019-02-05T03:46:11.629Z,0.49
2019-02-05T03:47:11.616Z,0.42
2019-02-05T03:48:11.620Z,0.46
2019-02-05T03:49:11.594Z,0.38
2019-02-05T03:50:11.583Z,0.42
2019-02-05T03:51:11.569Z,0.38
2019-02-05T03:52:11.573Z,0.39
2019-02-05T03:53:11.577Z,0.26
2019-02-05T03:54:11.537Z,0.23
2019-02-05T03:55:11.531Z,0.23
2019-02-05T03:56:11.516Z,0.23
2019-02-05T03:57:11.504Z,0.18
2019-02-05T03:58:11.516Z,0.18
2019-02-05T03:59:11.488Z,0.18
2019-02-05T04:00:11.622Z,0.17
2019-02-05T04:01:11.462Z,0.15
2019-02-05T04:02:11.455Z,0.20
2019-02-05T04:03:11.456Z,0.18
2019-02-05T04:04:11.453Z,0.14
2019-02-05T04:05:11.418Z,0.18
2019-02-05T04:06:11.410Z,0.18
2019-02-05T04:07:11.398Z,0.17
2019-02-05T04:08:11.386Z,0.08
2019-02-05T04:09:11.391Z,0.10
2019-02-05T04:10:11.379Z,0.07
2019-02-05T04:11:11.354Z,0.10
2019-02-05T04:12:11.342Z,0.14
2019-02-05T04:13:11.334Z,0.18
2019-02-05T04:14:11.346Z,0.18
2019-02-05T04:15:11.313Z,0.17
2019-02-05T04:16:11.307Z,0.17
2019-02-05T04:17:11.291Z,0.17
2019-02-05T04:18:11.280Z,0.21
2019-02-05T04:19:11.284Z,0.26
2019-02-05T04:20:11.259Z,0.23
2019-02-05T04:21:11.250Z,0.29
2019-02-05T04:22:11.264Z,0.31
2019-02-05T04:23:11.226Z,0.29
2019-02-05T04:24:11.231Z,0.35
2019-02-05T04:25:11.205Z,0.41
2019-02-05T04:26:11.192Z,0.41
2019-02-05T04:27:11.184Z,0.44
2019-02-05T04:28:11.174Z,0.44
2019-02-05T04:29:11.185Z,0.47
2019-02-05T04:30:11.154Z,0.49
2019-02-05T04:31:11.143Z,0.50
2019-02-05T04:32:11.127Z,0.53
2019-02-05T04:33:11.122Z,0.62
2019-02-05T04:34:11.125Z,0.70
2019-02-05T04:35:11.104Z,0.61
2019-02-05T04:36:11.097Z,0.65
2019-02-05T04:37:11.078Z,0.69
2019-02-05T04:38:11.065Z,0.73
2019-02-05T04:39:11.081Z,0.69
2019-02-05T04:40:11.104Z,0.76
2019-02-05T04:41:11.036Z,0.84
2019-02-05T04:42:11.023Z,0.68
2019-02-05T04:43:11.010Z,0.76
2019-02-05T04:44:11.006Z,0.72
2019-02-05T04:45:11.035Z,0.80
2019-02-05T04:46:10.997Z,0.76
2019-02-05T04:47:10.971Z,0.78
2019-02-05T04:48:11.010Z,0.80
2019-02-05T04:49:10.960Z,0.84
2019-02-05T04:50:10.957Z,0.83
2019-02-05T04:51:10.939Z,0.79
2019-02-05T04:52:10.930Z,0.79
2019-02-05T04:53:10.905Z,0.88
2019-02-05T04:54:10.911Z,0.93
2019-02-05T04:55:10.912Z,0.83
2019-02-05T04:56:10.870Z,0.86
2019-02-05T04:57:10.876Z,0.93
2019-02-05T04:58:10.856Z,0.93
2019-02-05T04:59:10.870Z,0.93
2019-02-05T05:00:10.840Z,0.97
2019-02-05T05:01:10.841Z,0.97
2019-02-05T05:02:10.807Z,1.00
2019-02-05T05:03:10.800Z,1.04
2019-02-05T05:04:10.815Z,1.02
2019-02-05T05:05:10.793Z,1.04
2019-02-05T05:06:10.781Z,1.04
2019-02-05T05:07:10.758Z,1.02
2019-02-05T05:08:10.755Z,1.04
2019-02-05T05:09:10.748Z,1.04
2019-02-05T05:10:10.742Z,1.04
2019-02-05T05:11:10.740Z,1.00
2019-02-05T05:12:10.717Z,1.14
2019-02-05T05:13:10.691Z,1.05
2019-02-05T05:14:10.675Z,1.12
2019-02-05T05:15:10.734Z,1.02
2019-02-05T05:16:10.686Z,1.04
2019-02-05T05:17:10.649Z,1.02
2019-02-05T05:18:10.632Z,1.00
2019-02-05T05:19:10.628Z,1.08
2019-02-05T05:20:10.641Z,1.05
2019-02-05T05:21:10.617Z,1.04
2019-02-05T05:22:10.591Z,1.05
2019-02-05T05:23:10.655Z,1.04
2019-02-05T05:24:10.574Z,1.04
2019-02-05T05:25:10.559Z,1.00
2019-02-05T05:26:10.570Z,1.02
2019-02-05T05:27:10.558Z,1.05
2019-02-05T05:28:10.627Z,1.02
2019-02-05T05:29:10.522Z,1.09
2019-02-05T05:30:10.538Z,1.04
2019-02-05T05:31:10.511Z,1.08
2019-02-05T05:32:10.503Z,1.06
2019-02-05T05:33:10.474Z,1.04
2019-02-05T05:34:10.468Z,1.00
2019-02-05T05:35:10.450Z,1.05
2019-02-05T05:36:10.460Z,1.12
2019-02-05T05:37:10.445Z,1.11
2019-02-05T05:38:10.421Z,1.11
2019-02-05T05:39:10.410Z,1.06
2019-02-05T05:40:10.399Z,1.20
2019-02-05T05:41:10.412Z,1.05
2019-02-05T05:42:10.407Z,1.11
2019-02-05T05:43:10.370Z,1.12
2019-02-05T05:44:10.353Z,1.12
2019-02-05T05:45:10.349Z,0.98
2019-02-05T05:46:10.374Z,1.02
2019-02-05T05:47:10.344Z,1.12
2019-02-05T05:48:10.314Z,1.06
2019-02-05T05:49:10.305Z,1.09
2019-02-05T05:50:10.288Z,1.06
2019-02-05T05:51:10.283Z,1.15
2019-02-05T05:52:10.293Z,1.08
2019-02-05T05:53:10.260Z,1.05
2019-02-05T05:54:10.248Z,1.05
2019-02-05T05:55:10.237Z,1.06
2019-02-05T05:56:10.247Z,1.00
2019-02-05T05:57:10.249Z,1.05
2019-02-05T05:58:21.955Z,1.12
2019-02-05T05:59:11.193Z,1.04
2019-02-05T06:00:10.184Z,1.05
2019-02-05T06:01:10.177Z,1.02
2019-02-05T06:02:10.196Z,1.04
2019-02-05T06:03:10.158Z,1.02
2019-02-05T06:04:10.139Z,0.97
2019-02-05T06:05:10.125Z,0.96
2019-02-05T06:06:10.120Z,0.96
2019-02-05T06:07:10.113Z,0.98
2019-02-05T06:08:10.108Z,0.93
2019-02-05T06:09:10.085Z,0.97
2019-02-05T06:10:10.077Z,0.86
2019-02-05T06:11:10.086Z,0.98
2019-02-05T06:12:10.076Z,0.96
2019-02-05T06:13:10.061Z,1.00
2019-02-05T06:14:10.029Z,1.02
2019-02-05T06:15:10.017Z,1.05
2019-02-05T06:16:10.010Z,1.06
2019-02-05T06:17:10.002Z,1.05
2019-02-05T06:18:10.003Z,1.00
2019-02-05T06:19:09.982Z,1.04
2019-02-05T06:20:09.966Z,1.12
2019-02-05T06:21:09.951Z,1.05
2019-02-05T06:22:09.947Z,1.12
2019-02-05T06:23:09.968Z,1.11
2019-02-05T06:24:09.921Z,1.05
2019-02-05T06:25:09.912Z,1.06
2019-02-05T06:26:09.898Z,1.05
2019-02-05T06:27:09.890Z,0.96
2019-02-05T06:28:09.895Z,0.96
2019-02-05T06:29:09.879Z,1.04
2019-02-05T06:30:09.867Z,0.93
2019-02-05T06:31:09.854Z,0.97
2019-02-05T06:32:09.834Z,0.93
2019-02-05T06:33:09.855Z,0.93
2019-02-05T06:34:09.823Z,0.94
2019-02-05T06:35:09.805Z,0.97
2019-02-05T06:36:09.790Z,1.04
2019-02-05T06:37:09.788Z,0.94
2019-02-05T06:38:09.771Z,0.96
2019-02-05T06:39:09.788Z,1.05
2019-02-05T06:40:09.756Z,0.96
2019-02-05T06:41:09.741Z,1.00
2019-02-05T06:42:09.726Z,1.02
2019-02-05T06:43:09.722Z,1.06
2019-02-05T06:44:09.733Z,1.09
2019-02-05T06:45:09.699Z,1.04
2019-02-05T06:46:09.691Z,1.04
2019-02-05T06:47:09.672Z,1.08
2019-02-05T06:48:09.663Z,1.09
2019-02-05T06:49:09.668Z,1.04
2019-02-05T06:50:09.637Z,0.98
2019-02-05T06:51:09.635Z,1.14
2019-02-05T06:52:09.625Z,1.11
2019-02-05T06:53:09.614Z,1.12
2019-02-05T06:54:09.613Z,1.11
2019-02-05T06:55:09.588Z,1.09
2019-02-05T06:56:09.578Z,1.14
2019-02-05T06:57:09.577Z,1.15
2019-02-05T06:58:09.554Z,1.12
2019-02-05T06:59:09.575Z,1.23
2019-02-05T07:00:09.552Z,1.09
2019-02-05T07:01:09.528Z,1.20
2019-02-05T07:02:09.511Z,1.12
2019-02-05T07:03:09.500Z,1.18
2019-02-05T07:04:09.509Z,1.12
2019-02-05T07:05:09.519Z,1.22
2019-02-05T07:06:09.467Z,1.18
2019-02-05T07:07:09.457Z,1.24
2019-02-05T07:08:09.445Z,1.20
2019-02-05T07:09:09.442Z,1.12
2019-02-05T07:10:09.443Z,1.11
2019-02-05T07:11:09.419Z,1.20
2019-02-05T07:12:09.405Z,1.16
2019-02-05T07:13:09.399Z,1.14
2019-02-05T07:14:09.379Z,1.12
2019-02-05T07:15:09.386Z,1.23
2019-02-05T07:16:09.361Z,1.27
2019-02-05T07:17:09.349Z,1.22
2019-02-05T07:18:09.340Z,1.23
2019-02-05T07:19:09.342Z,1.26
2019-02-05T07:20:09.344Z,1.22
2019-02-05T07:21:09.320Z,1.27
2019-02-05T07:22:09.295Z,1.24
2019-02-05T07:23:09.283Z,1.29
2019-02-05T07:24:09.275Z,1.26
2019-02-05T07:25:09.284Z,1.33
2019-02-05T07:26:09.260Z,1.32
2019-02-05T07:27:09.246Z,1.23
2019-02-05T07:28:09.265Z,1.24
2019-02-05T07:29:09.222Z,1.24
2019-02-05T07:30:09.232Z,1.23
2019-02-05T07:31:09.209Z,1.22
2019-02-05T07:32:09.196Z,1.27
2019-02-05T07:33:09.182Z,1.23
2019-02-05T07:34:09.191Z,1.24
2019-02-05T07:35:09.202Z,1.29
2019-02-05T07:36:09.156Z,1.24
2019-02-05T07:37:09.151Z,1.30
2019-02-05T07:38:09.123Z,1.29
2019-02-05T07:39:09.116Z,1.27
2019-02-05T07:40:09.104Z,1.29
2019-02-05T07:41:09.135Z,1.32
2019-02-05T07:42:09.121Z,1.30
2019-02-05T07:43:09.073Z,1.30
2019-02-05T07:44:09.063Z,1.34
2019-02-05T07:45:09.046Z,1.29
2019-02-05T07:46:09.060Z,1.26
2019-02-05T07:47:09.031Z,1.26
2019-02-05T07:48:09.021Z,1.18
2019-02-05T07:49:09.009Z,1.24
2019-02-05T07:50:08.992Z,1.30
2019-02-05T07:51:09.003Z,1.26
2019-02-05T07:52:08.970Z,1.22
2019-02-05T07:53:08.961Z,1.29
2019-02-05T07:54:08.951Z,1.26
2019-02-05T07:55:08.955Z,1.23
2019-02-05T07:56:08.947Z,1.33
2019-02-05T07:57:08.922Z,1.23
2019-02-05T07:58:08.925Z,1.24
2019-02-05T07:59:10.513Z,1.29
2019-02-05T08:00:08.891Z,1.34
2019-02-05T08:01:08.908Z,1.34
2019-02-05T08:02:08.865Z,1.34
2019-02-05T08:03:08.862Z,1.27
2019-02-05T08:04:08.846Z,1.29
2019-02-05T08:05:08.850Z,1.26
2019-02-05T08:06:08.847Z,1.32
2019-02-05T08:07:08.808Z,1.29
2019-02-05T08:08:08.806Z,1.33
2019-02-05T08:09:08.795Z,1.32
2019-02-05T08:10:08.779Z,1.34
2019-02-05T08:11:08.797Z,1.36
2019-02-05T08:12:08.754Z,1.34
2019-02-05T08:13:08.744Z,1.41
2019-02-05T08:14:08.740Z,1.40
2019-02-05T08:15:08.727Z,1.41
2019-02-05T08:16:08.762Z,1.44
2019-02-05T08:17:08.712Z,1.44
2019-02-05T08:18:08.692Z,1.37
2019-02-05T08:19:08.681Z,1.45
2019-02-05T08:20:08.668Z,1.45
2019-02-05T08:21:08.659Z,1.45
2019-02-05T08:22:09.669Z,1.51
2019-02-05T08:23:08.642Z,1.44
2019-02-05T08:24:08.633Z,1.54
2019-02-05T08:25:08.618Z,1.47
2019-02-05T08:26:08.605Z,1.54
2019-02-05T08:27:08.607Z,1.58
2019-02-05T08:28:08.581Z,1.59
2019-02-05T08:29:08.583Z,1.65
2019-02-05T08:30:08.560Z,1.62
2019-02-05T08:31:08.558Z,1.65
2019-02-05T08:32:08.555Z,1.63
2019-02-05T08:33:08.539Z,1.54
2019-02-05T08:34:08.524Z,1.65
2019-02-05T08:35:08.510Z,1.58
2019-02-05T08:36:08.501Z,1.63
2019-02-05T08:37:08.505Z,1.60
2019-02-05T08:38:08.476Z,1.52
2019-02-05T08:39:08.470Z,1.65
2019-02-05T08:40:08.456Z,1.65
2019-02-05T08:41:08.450Z,1.55
2019-02-05T08:42:08.521Z,1.63
2019-02-05T08:43:08.462Z,1.60
2019-02-05T08:44:08.409Z,1.66
2019-02-05T08:45:08.403Z,1.59
2019-02-05T08:46:08.392Z,1.60
2019-02-05T08:47:08.390Z,1.63
2019-02-05T08:48:08.396Z,1.66
2019-02-05T08:49:08.365Z,1.69
2019-02-05T08:50:08.352Z,1.68
2019-02-05T08:51:08.357Z,1.59
2019-02-05T08:52:08.322Z,1.60
2019-02-05T08:53:08.355Z,1.59
2019-02-05T08:54:08.298Z,1.66
2019-02-05T08:55:08.328Z,1.52
2019-02-05T08:56:08.278Z,1.54
2019-02-05T08:57:08.277Z,1.60
2019-02-05T08:58:08.311Z,1.63
2019-02-05T08:59:08.271Z,1.70
2019-02-05T09:00:08.249Z,1.68
2019-02-05T09:01:08.226Z,1.59
2019-02-05T09:02:08.212Z,1.63
2019-02-05T09:03:08.229Z,1.66
2019-02-05T09:04:08.201Z,1.77
2019-02-05T09:05:08.188Z,1.69
2019-02-05T09:06:08.180Z,1.63
2019-02-05T09:07:08.173Z,1.65
2019-02-05T09:08:08.184Z,1.70
2019-02-05T09:09:08.141Z,1.79
2019-02-05T09:10:08.124Z,1.76
2019-02-05T09:11:08.119Z,1.86
2019-02-05T09:12:08.126Z,1.84
2019-02-05T09:13:08.099Z,1.83
2019-02-05T09:14:10.681Z,1.84
2019-02-05T09:15:09.089Z,1.84
2019-02-05T09:16:08.075Z,1.81
2019-02-05T09:17:08.059Z,1.83
2019-02-05T09:18:08.073Z,1.88
2019-02-05T09:19:08.043Z,1.86
2019-02-05T09:20:08.015Z,1.93
2019-02-05T09:21:08.004Z,1.93
2019-02-05T09:22:08.011Z,2.06
2019-02-05T09:23:07.990Z,2.06
2019-02-05T09:24:08.008Z,2.06
2019-02-05T09:25:07.960Z,2.05
2019-02-05T09:26:07.951Z,2.09
2019-02-05T09:27:07.943Z,2.07
2019-02-05T09:28:07.930Z,2.07
2019-02-05T09:29:07.959Z,2.14
2019-02-05T09:30:07.909Z,2.03
2019-02-05T09:31:07.895Z,2.02
2019-02-05T09:32:07.907Z,2.06
2019-02-05T09:33:07.877Z,2.03
2019-02-05T09:34:07.897Z,1.95
2019-02-05T09:35:07.851Z,2.10
2019-02-05T09:36:07.839Z,2.07
2019-02-05T09:37:07.831Z,2.14
2019-02-05T09:38:07.851Z,2.14
2019-02-05T09:39:07.846Z,2.17
2019-02-05T09:40:07.807Z,2.14
2019-02-05T09:41:07.786Z,2.16
2019-02-05T09:42:07.777Z,2.14
2019-02-05T09:43:07.764Z,2.23
2019-02-05T09:44:07.783Z,2.31
2019-02-05T09:45:07.770Z,2.30
2019-02-05T09:46:07.738Z,2.31
2019-02-05T09:47:07.726Z,2.34
2019-02-05T09:48:07.714Z,2.39
2019-02-05T09:49:07.708Z,2.41
2019-02-05T09:50:07.727Z,2.49
2019-02-05T09:51:07.678Z,2.49
2019-02-05T09:52:07.676Z,2.43
2019-02-05T09:53:07.657Z,2.45
2019-02-05T09:54:07.648Z,2.45
2019-02-05T09:55:07.656Z,2.45
2019-02-05T09:56:07.643Z,2.45
2019-02-05T09:57:07.612Z,2.46
2019-02-05T09:58:07.602Z,2.53
2019-02-05T09:59:07.586Z,2.46
2019-02-05T10:00:07.593Z,2.52
2019-02-05T10:01:07.574Z,2.46
2019-02-05T10:02:07.561Z,2.56
2019-02-05T10:03:07.555Z,2.60
2019-02-05T10:04:07.541Z,2.67
2019-02-05T10:05:07.548Z,2.66
2019-02-05T10:06:07.514Z,2.67
2019-02-05T10:07:07.502Z,2.63
2019-02-05T10:08:07.501Z,2.72
2019-02-05T10:09:07.479Z,2.72
2019-02-05T10:10:07.465Z,2.81
2019-02-05T10:11:07.478Z,2.82
2019-02-05T10:12:07.443Z,2.85
2019-02-05T10:13:07.433Z,2.93
2019-02-05T10:14:07.429Z,2.93
2019-02-05T10:15:07.421Z,2.92
2019-02-05T10:16:07.427Z,2.93
2019-02-05T10:17:07.399Z,2.95
2019-02-05T10:18:07.380Z,2.99
2019-02-05T10:19:07.378Z,3.03
2019-02-05T10:20:07.369Z,3.15
2019-02-05T10:21:07.372Z,3.06
2019-02-05T10:22:07.349Z,3.08
2019-02-05T10:23:07.331Z,3.08
2019-02-05T10:24:07.312Z,3.03
2019-02-05T10:25:07.301Z,3.08
2019-02-05T10:26:07.317Z,3.14
2019-02-05T10:27:07.280Z,3.05
2019-02-05T10:28:07.272Z,3.11
2019-02-05T10:29:07.269Z,3.10
2019-02-05T10:30:07.257Z,3.11
2019-02-05T10:31:07.268Z,3.14
2019-02-05T10:32:07.249Z,3.10
2019-02-05T10:33:07.223Z,3.21
2019-02-05T10:34:07.204Z,3.26
2019-02-05T10:35:07.203Z,3.32
2019-02-05T10:36:07.200Z,3.32
2019-02-05T10:37:07.179Z,3.36
2019-02-05T10:38:07.172Z,3.42
2019-02-05T10:39:07.160Z,3.40
2019-02-05T10:40:07.143Z,3.42
2019-02-05T10:41:07.143Z,3.36
2019-02-05T10:42:07.136Z,3.42
2019-02-05T10:43:07.113Z,3.51
2019-02-05T10:44:07.106Z,3.50
2019-02-05T10:45:07.090Z,3.52
2019-02-05T10:46:07.077Z,3.57
2019-02-05T10:47:07.079Z,3.52
2019-02-05T10:48:07.055Z,3.57
2019-02-05T10:49:07.044Z,3.60
2019-02-05T10:50:07.029Z,3.76
2019-02-05T10:51:07.018Z,3.68
2019-02-05T10:52:07.023Z,3.66
2019-02-05T10:53:07.009Z,3.80
2019-02-05T10:54:06.994Z,3.79
2019-02-05T10:55:06.976Z,3.93
2019-02-05T10:56:06.984Z,3.88
2019-02-05T10:57:06.998Z,3.97
2019-02-05T10:58:06.947Z,3.91
2019-02-05T10:59:06.931Z,4.12
2019-02-05T11:00:09.047Z,4.00
2019-02-05T11:01:06.910Z,4.00
2019-02-05T11:02:06.903Z,4.15
2019-02-05T11:03:06.930Z,4.14
2019-02-05T11:04:06.909Z,4.18
2019-02-05T11:05:06.863Z,4.11
2019-02-05T11:06:06.861Z,4.22
2019-02-05T11:07:06.864Z,4.27
2019-02-05T11:08:06.837Z,4.29
2019-02-05T11:09:06.833Z,4.36
2019-02-05T11:10:06.818Z,4.42
2019-02-05T11:11:06.800Z,4.45
2019-02-05T11:12:06.807Z,4.37
2019-02-05T11:13:06.811Z,4.50
2019-02-05T11:14:06.770Z,4.50
2019-02-05T11:15:06.761Z,4.54
2019-02-05T11:16:06.762Z,4.55
2019-02-05T11:17:06.753Z,4.52
2019-02-05T11:18:06.759Z,4.51
2019-02-05T11:19:06.718Z,4.54
2019-02-05T11:20:06.709Z,4.51
2019-02-05T11:21:06.700Z,4.41
2019-02-05T11:22:06.681Z,4.42
2019-02-05T11:23:06.694Z,4.36
2019-02-05T11:24:06.673Z,4.37
2019-02-05T11:25:06.659Z,4.40
2019-02-05T11:26:06.679Z,4.36
2019-02-05T11:27:06.628Z,4.30
2019-02-05T11:28:06.713Z,4.30
2019-02-05T11:29:06.610Z,4.37
2019-02-05T11:30:06.594Z,4.34
2019-02-05T11:31:06.615Z,4.33
2019-02-05T11:32:06.570Z,4.44
2019-02-05T11:33:06.571Z,4.50
2019-02-05T11:34:06.563Z,4.52
2019-02-05T11:35:06.548Z,4.54
2019-02-05T11:36:06.526Z,4.65
2019-02-05T11:37:06.530Z,4.66
2019-02-05T11:38:06.528Z,4.77
2019-02-05T11:39:06.508Z,5.03
2019-02-05T11:40:06.491Z,5.10
2019-02-05T11:41:06.483Z,5.17
2019-02-05T11:42:06.466Z,5.35
2019-02-05T11:43:06.483Z,5.35
2019-02-05T11:44:06.470Z,5.46
2019-02-05T11:45:06.427Z,5.48
2019-02-05T11:46:06.419Z,5.40
2019-02-05T11:47:06.437Z,5.28
2019-02-05T11:48:06.413Z,5.36
2019-02-05T11:49:06.407Z,5.28
2019-02-05T11:50:06.377Z,5.31
2019-02-05T11:51:06.367Z,5.35
2019-02-05T11:52:06.353Z,5.31
2019-02-05T11:53:06.344Z,5.27
2019-02-05T11:54:06.353Z,5.39
2019-02-05T11:55:06.328Z,5.38
2019-02-05T11:56:06.316Z,5.35
2019-02-05T11:57:06.296Z,5.40
2019-02-05T11:58:06.304Z,5.51
2019-02-05T11:59:06.283Z,5.64
2019-02-05T12:00:06.296Z,5.78
2019-02-05T12:01:06.265Z,5.90
2019-02-05T12:02:06.253Z,6.01
2019-02-05T12:03:06.273Z,6.11
2019-02-05T12:04:06.223Z,6.19
2019-02-05T12:05:06.244Z,6.31
2019-02-05T12:06:06.218Z,6.40
2019-02-05T12:07:06.199Z,6.52
2019-02-05T12:08:06.176Z,6.66
2019-02-05T12:09:06.170Z,6.62
2019-02-05T12:10:06.160Z,6.67
2019-02-05T12:11:06.176Z,6.54
2019-02-05T12:12:06.135Z,6.56
2019-02-05T12:13:06.124Z,6.38
2019-02-05T12:14:06.112Z,6.44
2019-02-05T12:15:06.099Z,6.33
2019-02-05T12:16:06.112Z,6.37
2019-02-05T12:17:06.088Z,6.25
2019-02-05T12:18:06.067Z,6.28
2019-02-05T12:19:06.063Z,6.33
2019-02-05T12:20:06.089Z,6.38
2019-02-05T12:21:06.034Z,6.38
2019-02-05T12:22:06.039Z,6.41
2019-02-05T12:23:06.031Z,6.33
2019-02-05T12:24:06.007Z,6.40
2019-02-05T12:25:05.999Z,6.55
2019-02-05T12:26:06.029Z,6.56
2019-02-05T12:27:05.973Z,6.49
2019-02-05T12:28:05.984Z,6.55
2019-02-05T12:29:05.950Z,6.48
2019-02-05T12:30:05.941Z,6.49
2019-02-05T12:31:05.946Z,6.48
2019-02-05T12:32:05.930Z,6.62
2019-02-05T12:33:05.906Z,6.56
2019-02-05T12:34:05.895Z,6.58
2019-02-05T12:35:05.878Z,6.64
2019-02-05T12:36:05.886Z,6.71
2019-02-05T12:37:05.891Z,6.69
2019-02-05T12:38:05.850Z,6.67
2019-02-05T12:39:05.850Z,6.79
2019-02-05T12:40:05.822Z,6.80
2019-02-05T12:41:05.841Z,6.80
2019-02-05T12:42:05.798Z,6.92
2019-02-05T12:43:05.815Z,6.99
2019-02-05T12:44:05.782Z,6.99
2019-02-05T12:45:05.774Z,6.99
2019-02-05T12:46:05.785Z,7.05
2019-02-05T12:47:05.772Z,7.09
2019-02-05T12:48:05.749Z,7.15
2019-02-05T12:49:05.748Z,7.05
2019-02-05T12:50:05.720Z,7.15
2019-02-05T12:51:05.702Z,7.13
2019-02-05T12:52:05.688Z,7.16
2019-02-05T12:53:05.726Z,7.23
2019-02-05T12:54:05.668Z,7.21
2019-02-05T12:55:13.116Z,7.31
2019-02-05T12:56:06.651Z,7.27
2019-02-05T12:57:05.636Z,7.35
2019-02-05T12:58:05.644Z,7.34
2019-02-05T12:59:05.619Z,7.28
2019-02-05T13:00:05.604Z,7.24
2019-02-05T13:01:05.605Z,7.23
2019-02-05T13:02:05.579Z,7.17
2019-02-05T13:03:05.596Z,7.25
2019-02-05T13:04:05.564Z,7.13
2019-02-05T13:05:05.551Z,7.17
2019-02-05T13:06:05.540Z,7.15
2019-02-05T13:07:05.541Z,7.21
2019-02-05T13:08:05.731Z,7.16
2019-02-05T13:09:05.501Z,7.05
2019-02-05T13:10:05.489Z,6.99
2019-02-05T13:11:05.510Z,6.99
2019-02-05T13:12:05.488Z,6.92
2019-02-05T13:13:05.472Z,6.95
2019-02-05T13:14:05.464Z,6.87
2019-02-05T13:15:05.460Z,6.97
2019-02-05T13:16:05.445Z,6.89
2019-02-05T13:17:05.425Z,6.97
2019-02-05T13:18:05.434Z,6.94